createdAt,value
2019-02-19T00:01:07.438Z,22.63
2019-02-19T00:03:35.833Z,21.63
2019-02-19T00:06:04.227Z,20.43
2019-02-19T00:08:32.623Z,21.23
2019-02-19T00:11:01.008Z,20.00
2019-02-19T00:13:29.408Z,21.93
2019-02-19T00:15:57.794Z,21.23
2019-02-19T00:18:26.187Z,21.97
2019-02-19T00:20:54.583Z,21.33
2019-02-19T00:23:23.262Z,21.07
2019-02-19T00:25:51.656Z,21.23
2019-02-19T00:28:20.049Z,20.83
2019-02-19T00:30:48.433Z,19.67
2019-02-19T00:33:16.834Z,20.07
2019-02-19T00:35:45.225Z,21.40
2019-02-19T00:38:13.686Z,20.70
2019-02-19T00:40:42.092Z,21.37
2019-02-19T00:43:10.484Z,21.77
2019-02-19T00:45:38.875Z,20.63
2019-02-19T00:48:07.270Z,20.60
2019-02-19T00:50:35.697Z,22.67
2019-02-19T00:53:04.163Z,20.10
2019-02-19T00:55:32.558Z,23.00
2019-02-19T00:58:00.958Z,23.70
2019-02-19T01:00:29.349Z,23.33
2019-02-19T01:02:57.748Z,23.07
2019-02-19T01:05:26.425Z,23.33
2019-02-19T01:07:54.814Z,23.57
2019-02-19T01:10:23.246Z,22.20
2019-02-19T01:12:51.716Z,22.87
2019-02-19T01:15:25.374Z,24.07
2019-02-19T01:17:50.240Z,23.77
2019-02-19T01:20:18.638Z,24.33
2019-02-19T01:22:47.032Z,23.80
2019-02-19T01:25:15.426Z,24.33
2019-02-19T01:27:43.829Z,24.50
2019-02-19T01:30:12.292Z,23.30
2019-02-19T01:32:40.685Z,23.73
2019-02-19T01:35:09.221Z,22.53
2019-02-19T01:37:37.613Z,22.63
2019-02-19T01:40:08.540Z,22.30
2019-02-19T01:42:36.931Z,22.83
2019-02-19T01:45:07.706Z,22.00
2019-02-19T01:47:36.098Z,21.57
2019-02-19T01:50:06.731Z,22.10
2019-02-19T01:52:35.123Z,20.77
2019-02-19T01:55:04.291Z,21.43
2019-02-19T01:57:32.685Z,21.07
2019-02-19T02:00:01.081Z,20.73
2019-02-19T02:02:29.478Z,22.63
2019-02-19T02:04:57.877Z,21.50
2019-02-19T02:07:26.954Z,21.90
2019-02-19T02:09:55.457Z,23.93
2019-02-19T02:12:23.849Z,22.77
2019-02-19T02:14:52.242Z,23.07
2019-02-19T02:17:21.303Z,21.70
2019-02-19T02:19:49.798Z,20.87
2019-02-19T02:22:18.180Z,21.50
2019-02-19T02:24:46.577Z,22.70
2019-02-19T02:27:14.971Z,22.47
2019-02-19T02:29:43.368Z,20.97
2019-02-19T02:32:11.755Z,22.53
2019-02-19T02:34:40.142Z,22.20
2019-02-19T02:37:08.537Z,22.03
2019-02-19T02:39:36.948Z,20.97
2019-02-19T02:42:05.610Z,21.73
2019-02-19T02:44:34.009Z,21.57
2019-02-19T02:47:02.402Z,22.30
2019-02-19T02:49:30.795Z,22.17
2019-02-19T02:51:59.186Z,22.40
2019-02-19T02:54:27.587Z,23.07
2019-02-19T02:56:55.990Z,21.63
2019-02-19T02:59:24.390Z,21.00
2019-02-19T03:01:52.782Z,21.47
2019-02-19T03:04:21.175Z,21.43
2019-02-19T03:06:51.207Z,21.57
2019-02-19T03:09:19.608Z,22.10
2019-02-19T03:11:48.156Z,22.13
2019-02-19T03:14:16.548Z,20.70
2019-02-19T03:16:45.027Z,20.93
2019-02-19T03:19:13.424Z,20.97
2019-02-19T03:21:41.825Z,20.60
2019-02-19T03:24:10.236Z,20.83
2019-02-19T03:26:38.626Z,20.17
2019-02-19T03:29:07.030Z,21.07
2019-02-19T03:31:35.420Z,23.13
2019-02-19T03:34:03.818Z,22.83
2019-02-19T03:36:32.395Z,18.90
2019-02-19T03:39:00.785Z,20.63
2019-02-19T03:41:29.362Z,22.20
2019-02-19T03:43:57.752Z,22.30
2019-02-19T03:46:27.682Z,20.77
2019-02-19T03:48:56.078Z,24.20
2019-02-19T03:51:24.565Z,24.80
2019-02-19T03:53:52.933Z,23.23
2019-02-19T03:56:21.417Z,25.17
2019-02-19T03:58:49.812Z,25.10
2019-02-19T04:01:18.566Z,23.77
2019-02-19T04:03:46.959Z,25.83
2019-02-19T04:06:16.148Z,26.43
2019-02-19T04:08:44.539Z,25.03
2019-02-19T04:11:13.484Z,25.17
2019-02-19T04:13:41.895Z,26.10
2019-02-19T04:16:10.708Z,24.47
2019-02-19T04:18:39.103Z,24.30
2019-02-19T04:21:07.493Z,25.07
2019-02-19T04:23:35.885Z,25.93
2019-02-19T04:26:04.375Z,25.73
2019-02-19T04:28:32.775Z,25.23
2019-02-19T04:31:01.193Z,26.20
2019-02-19T04:33:29.599Z,26.23
2019-02-19T04:35:58.007Z,25.20
2019-02-19T04:38:26.445Z,25.53
2019-02-19T04:40:54.863Z,24.77
2019-02-19T04:43:23.270Z,23.87
2019-02-19T04:45:51.692Z,25.27
2019-02-19T04:48:20.088Z,25.20
2019-02-19T04:50:48.574Z,25.17
2019-02-19T04:53:17.006Z,23.80
2019-02-19T04:55:45.404Z,24.13
2019-02-19T04:58:13.841Z,24.03
2019-02-19T05:00:42.222Z,25.17
2019-02-19T05:03:10.611Z,24.37
2019-02-19T05:05:39.004Z,23.90
2019-02-19T05:08:07.397Z,25.30
2019-02-19T05:10:35.791Z,25.27
2019-02-19T05:13:04.190Z,23.40
2019-02-19T05:15:32.612Z,24.53
2019-02-19T05:18:01.002Z,22.93
2019-02-19T05:20:29.410Z,24.77
2019-02-19T05:22:57.817Z,24.40
2019-02-19T05:25:26.217Z,22.67
2019-02-19T05:27:54.608Z,23.90
2019-02-19T05:30:23.008Z,24.80
2019-02-19T05:32:51.400Z,25.30
2019-02-19T05:35:19.803Z,24.33
2019-02-19T05:37:48.196Z,24.63
2019-02-19T05:40:16.674Z,25.83
2019-02-19T05:42:45.089Z,26.40
2019-02-19T05:45:13.478Z,27.53
2019-02-19T05:47:41.888Z,27.07
2019-02-19T05:50:10.528Z,26.47
2019-02-19T05:52:38.921Z,27.87
2019-02-19T05:55:08.181Z,26.37
2019-02-19T05:57:36.602Z,26.70
2019-02-19T06:00:09.131Z,27.30
2019-02-19T06:02:37.506Z,27.40
2019-02-19T06:05:07.944Z,27.30
2019-02-19T06:07:36.356Z,27.27
2019-02-19T06:10:07.791Z,26.90
2019-02-19T06:12:36.189Z,27.43
2019-02-19T06:15:06.842Z,27.80
2019-02-19T06:17:35.233Z,26.27
2019-02-19T06:20:04.616Z,27.70
2019-02-19T06:22:33.006Z,26.30
2019-02-19T06:25:01.404Z,30.40
2019-02-19T06:27:29.799Z,28.17
2019-02-19T06:29:58.188Z,27.67
2019-02-19T06:32:26.586Z,26.90
2019-02-19T06:34:54.979Z,26.87
2019-02-19T06:37:23.374Z,27.23
2019-02-19T06:39:51.773Z,28.20
2019-02-19T06:42:20.170Z,27.40
2019-02-19T06:44:48.562Z,28.27
2019-02-19T06:47:16.971Z,28.70
2019-02-19T06:49:45.349Z,28.10
2019-02-19T06:52:13.758Z,29.37
2019-02-19T06:54:42.213Z,30.40
2019-02-19T06:57:10.693Z,31.13
2019-02-19T06:59:39.097Z,32.67
2019-02-19T07:02:25.572Z,31.77
2019-02-19T07:04:54.647Z,32.07
2019-02-19T07:07:23.044Z,32.30
2019-02-19T07:09:51.448Z,33.13
2019-02-19T07:12:19.852Z,32.83
2019-02-19T07:14:48.250Z,31.97
2019-02-19T07:17:17.762Z,32.47
2019-02-19T07:19:46.154Z,31.87
2019-02-19T07:22:14.548Z,32.07
2019-02-19T07:24:42.937Z,33.57
2019-02-19T07:27:11.346Z,32.83
2019-02-19T07:29:39.733Z,34.27
2019-02-19T07:32:08.134Z,32.13
2019-02-19T07:34:36.532Z,32.07
2019-02-19T07:37:04.926Z,32.37
2019-02-19T07:39:33.323Z,32.87
2019-02-19T07:42:01.716Z,32.13
2019-02-19T07:44:30.113Z,33.17
2019-02-19T07:46:58.506Z,32.63
2019-02-19T07:49:26.897Z,33.67
2019-02-19T07:51:55.298Z,31.57
2019-02-19T07:54:23.694Z,31.83
2019-02-19T07:56:52.095Z,31.10
2019-02-19T07:59:20.492Z,31.67
2019-02-19T08:01:48.887Z,32.83
2019-02-19T08:04:17.277Z,32.17
2019-02-19T08:06:45.665Z,30.63
2019-02-19T08:09:14.056Z,31.33
2019-02-19T08:11:42.449Z,33.37
2019-02-19T08:14:10.869Z,31.23
2019-02-19T08:16:39.306Z,30.40
2019-02-19T08:19:07.700Z,31.37
2019-02-19T08:21:36.096Z,32.03
2019-02-19T08:24:04.493Z,31.97
2019-02-19T08:26:32.907Z,31.37
2019-02-19T08:29:11.415Z,32.37
2019-02-19T08:31:31.413Z,33.10
2019-02-19T08:33:59.890Z,31.07
2019-02-19T08:36:29.649Z,31.57
2019-02-19T08:38:58.259Z,31.07
2019-02-19T08:41:26.659Z,31.57
2019-02-19T08:43:55.062Z,31.97
2019-02-19T08:46:23.457Z,30.93
2019-02-19T08:48:51.845Z,31.27
2019-02-19T08:51:20.243Z,32.00
2019-02-19T08:53:48.630Z,30.50
2019-02-19T08:56:17.020Z,30.73
2019-02-19T08:58:45.411Z,32.10
2019-02-19T09:01:13.806Z,30.57
2019-02-19T09:03:42.200Z,30.80
2019-02-19T09:06:10.585Z,30.73
2019-02-19T09:08:38.989Z,31.50
2019-02-19T09:11:07.378Z,31.00
2019-02-19T09:13:35.769Z,31.40
2019-02-19T09:16:04.183Z,31.63
2019-02-19T09:18:32.546Z,30.77
2019-02-19T09:21:00.934Z,30.73
2019-02-19T09:23:29.322Z,30.87
2019-02-19T09:25:57.712Z,30.67
2019-02-19T09:28:26.108Z,30.93
2019-02-19T09:30:54.493Z,30.80
2019-02-19T09:33:23.098Z,31.67
2019-02-19T09:35:51.485Z,31.87
2019-02-19T09:38:19.875Z,30.10
2019-02-19T09:40:48.263Z,30.30
2019-02-19T09:43:16.660Z,29.37
2019-02-19T09:45:45.051Z,29.80
2019-02-19T09:48:13.445Z,29.03
2019-02-19T09:50:41.835Z,29.67
2019-02-19T09:53:10.226Z,30.23
2019-02-19T09:55:38.618Z,44.37
2019-02-19T09:58:07.007Z,35.53
2019-02-19T10:00:35.464Z,30.23
2019-02-19T10:03:03.851Z,28.60
2019-02-19T10:05:32.239Z,30.27
2019-02-19T10:08:00.629Z,28.47
2019-02-19T10:10:29.017Z,28.97
2019-02-19T10:12:57.403Z,28.77
2019-02-19T10:15:25.793Z,28.23
2019-02-19T10:17:54.194Z,26.90
2019-02-19T10:20:22.580Z,30.03
2019-02-19T10:22:50.978Z,29.03
2019-02-19T10:25:19.361Z,29.67
2019-02-19T10:27:47.761Z,28.60
2019-02-19T10:30:17.789Z,28.83
2019-02-19T10:32:46.184Z,29.23
2019-02-19T10:35:14.568Z,30.30
2019-02-19T10:37:42.963Z,29.97
2019-02-19T10:40:18.507Z,29.83
2019-02-19T10:42:46.908Z,27.90
2019-02-19T10:45:20.693Z,29.80
2019-02-19T10:47:49.085Z,28.73
2019-02-19T10:50:17.543Z,28.07
2019-02-19T10:52:46.105Z,29.17
2019-02-19T10:55:14.527Z,27.77
2019-02-19T10:57:42.910Z,27.53
2019-02-19T11:00:19.822Z,26.60
2019-02-19T11:02:48.272Z,26.67
2019-02-19T11:05:16.685Z,27.30
2019-02-19T11:07:45.061Z,28.10
2019-02-19T11:10:14.349Z,26.70
2019-02-19T11:12:42.731Z,25.27
2019-02-19T11:15:12.684Z,24.47
2019-02-19T11:17:41.058Z,24.67
2019-02-19T11:20:21.470Z,24.03
2019-02-19T11:22:49.900Z,23.33
2019-02-19T11:25:18.716Z,22.90
2019-02-19T11:27:47.235Z,24.10
2019-02-19T11:30:17.859Z,21.53
2019-02-19T11:32:46.260Z,20.77
2019-02-19T11:35:14.759Z,20.13
2019-02-19T11:37:43.148Z,20.33
2019-02-19T11:40:12.902Z,19.87
2019-02-19T11:42:41.564Z,20.40
2019-02-19T11:45:12.693Z,20.50
2019-02-19T11:47:41.086Z,21.40
2019-02-19T11:50:12.170Z,19.97
2019-02-19T11:52:40.546Z,19.87
2019-02-19T11:55:14.258Z,19.80
2019-02-19T11:57:42.648Z,19.17
2019-02-19T12:00:17.138Z,18.53
2019-02-19T12:02:45.570Z,18.67
2019-02-19T12:05:13.976Z,18.63
2019-02-19T12:07:42.380Z,18.70
2019-02-19T12:10:12.059Z,19.10
2019-02-19T12:12:40.604Z,20.30
2019-02-19T12:15:11.772Z,19.63
2019-02-19T12:17:40.166Z,19.23
2019-02-19T12:20:13.461Z,19.93
2019-02-19T12:22:41.856Z,20.17
2019-02-19T12:25:10.684Z,20.20
2019-02-19T12:27:39.147Z,20.30
2019-02-19T12:30:11.071Z,19.73
2019-02-19T12:32:39.463Z,19.47
2019-02-19T12:35:08.606Z,19.63
2019-02-19T12:37:36.989Z,18.13
2019-02-19T12:40:08.415Z,19.97
2019-02-19T12:42:36.820Z,18.57
2019-02-19T12:45:07.588Z,18.27
2019-02-19T12:47:35.982Z,19.07
2019-02-19T12:50:07.362Z,18.53
2019-02-19T12:52:35.778Z,19.13
2019-02-19T12:55:04.472Z,17.93
2019-02-19T12:57:32.857Z,17.67
2019-02-19T13:00:01.295Z,18.13
2019-02-19T13:02:29.667Z,17.97
2019-02-19T13:04:58.060Z,18.27
2019-02-19T13:07:26.475Z,17.50
2019-02-19T13:09:54.864Z,16.60
2019-02-19T13:12:23.253Z,16.20
2019-02-19T13:14:51.644Z,16.73
2019-02-19T13:17:20.033Z,16.53
2019-02-19T13:19:48.450Z,15.97
2019-02-19T13:22:16.835Z,16.07
2019-02-19T13:24:45.266Z,15.67
2019-02-19T13:27:13.734Z,15.30
2019-02-19T13:29:42.123Z,15.50
2019-02-19T13:32:10.519Z,16.53
2019-02-19T13:34:38.911Z,15.57
2019-02-19T13:37:07.372Z,16.30
2019-02-19T13:39:35.758Z,15.07
2019-02-19T13:42:04.148Z,15.97
2019-02-19T13:44:32.541Z,15.13
2019-02-19T13:47:00.928Z,15.03
2019-02-19T13:49:29.313Z,15.37
2019-02-19T13:51:59.348Z,14.83
2019-02-19T13:54:28.810Z,14.50
2019-02-19T13:56:57.202Z,14.93
2019-02-19T13:59:25.667Z,13.30
2019-02-19T14:01:54.088Z,14.57
2019-02-19T14:04:22.470Z,14.77
2019-02-19T14:06:50.859Z,14.77
2019-02-19T14:09:19.295Z,14.63
2019-02-19T14:11:47.724Z,13.77
2019-02-19T14:14:27.042Z,13.73
2019-02-19T14:16:57.204Z,14.67
2019-02-19T14:19:27.248Z,14.70
2019-02-19T14:21:57.277Z,15.47
2019-02-19T14:24:39.368Z,13.37
2019-02-19T14:27:18.062Z,14.27
2019-02-19T14:29:53.881Z,14.40
2019-02-19T14:32:40.393Z,14.27
2019-02-19T14:35:23.062Z,15.07
2019-02-19T14:37:53.121Z,14.30
2019-02-19T14:40:35.458Z,13.30
2019-02-19T14:43:14.297Z,13.30
2019-02-19T14:46:02.140Z,13.67
2019-02-19T14:48:43.810Z,13.10
2019-02-19T14:51:13.843Z,13.37
2019-02-19T14:53:43.951Z,13.00
2019-02-19T14:56:16.708Z,13.33
2019-02-19T14:59:02.929Z,12.73
2019-02-19T15:01:45.123Z,12.83
2019-02-19T15:04:20.674Z,12.43
2019-02-19T15:06:50.701Z,12.33
2019-02-19T15:09:36.999Z,12.37
2019-02-19T15:12:12.506Z,12.97
2019-02-19T15:14:45.257Z,13.30
2019-02-19T15:17:31.360Z,14.00
2019-02-19T15:20:04.260Z,13.27
2019-02-19T15:22:49.071Z,13.27
2019-02-19T15:25:25.211Z,12.40
2019-02-19T15:28:01.248Z,11.80
2019-02-19T15:30:39.741Z,12.20
2019-02-19T15:33:09.767Z,12.27
2019-02-19T15:35:42.869Z,12.40
2019-02-19T15:38:24.909Z,11.87
2019-02-19T15:41:12.988Z,12.13
2019-02-19T15:43:48.943Z,12.50
2019-02-19T15:46:21.643Z,12.43
2019-02-19T15:49:08.011Z,11.23
2019-02-19T15:51:38.051Z,11.57
2019-02-19T15:54:17.248Z,11.70
2019-02-19T15:57:02.583Z,11.53
2019-02-19T15:59:32.775Z,12.43
2019-02-19T16:02:05.231Z,12.03
2019-02-19T16:04:35.275Z,12.20
2019-02-19T16:07:21.416Z,12.00
2019-02-19T16:09:57.189Z,12.27
2019-02-19T16:12:32.725Z,12.43
2019-02-19T16:15:02.782Z,13.03
2019-02-19T16:17:39.126Z,12.23
2019-02-19T16:20:10.904Z,24.63
2019-02-19T16:22:56.784Z,27.13
2019-02-19T16:25:32.564Z,26.53
2019-02-19T16:28:02.633Z,27.63
2019-02-19T16:30:47.459Z,28.10
2019-02-19T16:33:23.487Z,28.40
2019-02-19T16:35:56.461Z,26.93
2019-02-19T16:38:38.103Z,27.30
2019-02-19T16:41:10.539Z,28.10
2019-02-19T16:43:43.227Z,25.20
2019-02-19T16:46:25.147Z,24.13
2019-02-19T16:49:00.901Z,22.70
2019-02-19T16:51:30.934Z,19.80
2019-02-19T16:54:04.048Z,15.70
2019-02-19T16:56:36.782Z,12.33
2019-02-19T16:59:07.717Z,11.80
2019-02-19T17:01:41.071Z,10.63
2019-02-19T17:04:29.232Z,11.07
2019-02-19T17:07:11.304Z,10.70
2019-02-19T17:09:44.340Z,11.00
2019-02-19T17:12:30.720Z,10.60
2019-02-19T17:15:06.474Z,11.15
2019-02-19T17:17:39.225Z,11.23
2019-02-19T17:20:28.795Z,11.47
2019-02-19T17:22:50.850Z,11.67
2019-02-19T17:25:20.896Z,11.17
2019-02-19T17:27:59.601Z,11.10
2019-02-19T17:30:38.348Z,11.77
2019-02-19T17:33:26.571Z,11.27
2019-02-19T17:35:59.443Z,11.80
2019-02-19T17:38:32.167Z,12.73
2019-02-19T17:41:14.187Z,12.50
2019-02-19T17:43:53.274Z,14.17
2019-02-19T17:46:41.397Z,13.70
2019-02-19T17:49:23.334Z,13.97
2019-02-19T17:52:05.066Z,13.10
2019-02-19T17:54:35.109Z,13.30
2019-02-19T17:57:21.548Z,13.50
2019-02-19T18:00:00.635Z,13.27
2019-02-19T18:02:42.574Z,14.07
2019-02-19T18:05:27.569Z,13.67
2019-02-19T18:08:03.835Z,13.40
2019-02-19T18:10:33.865Z,13.27
2019-02-19T18:13:03.903Z,14.83
2019-02-19T18:15:40.079Z,14.77
2019-02-19T18:18:12.997Z,13.90
2019-02-19T18:20:47.312Z,13.93
2019-02-19T18:23:11.577Z,15.60
2019-02-19T18:25:39.967Z,15.83
2019-02-19T18:28:08.364Z,14.93
2019-02-19T18:30:36.779Z,15.33
2019-02-19T18:33:05.169Z,16.13
2019-02-19T18:35:33.930Z,16.20
2019-02-19T18:38:02.335Z,16.00
2019-02-19T18:40:30.808Z,15.73
2019-02-19T18:42:59.204Z,14.43
2019-02-19T18:45:27.695Z,16.33
2019-02-19T18:47:56.086Z,16.30
2019-02-19T18:50:24.494Z,16.30
2019-02-19T18:52:52.878Z,17.27
2019-02-19T18:55:21.269Z,15.57
2019-02-19T18:57:50.645Z,16.43
2019-02-19T19:00:19.108Z,16.67
2019-02-19T19:02:47.513Z,15.23
2019-02-19T19:05:15.917Z,15.93
2019-02-19T19:07:44.309Z,15.37
2019-02-19T19:10:12.865Z,15.80
2019-02-19T19:12:41.292Z,15.47
2019-02-19T19:15:10.566Z,16.00
2019-02-19T19:17:38.974Z,17.17
2019-02-19T19:20:10.247Z,16.17
2019-02-19T19:22:38.640Z,16.60
2019-02-19T19:25:07.781Z,15.97
2019-02-19T19:27:36.177Z,17.30
2019-02-19T19:30:07.454Z,17.43
2019-02-19T19:32:35.841Z,16.50
2019-02-19T19:35:05.977Z,17.97
2019-02-19T19:37:34.370Z,17.27
2019-02-19T19:40:02.758Z,18.43
2019-02-19T19:42:31.150Z,17.50
2019-02-19T19:45:00.478Z,18.33
2019-02-19T19:47:28.869Z,18.03
2019-02-19T19:49:57.256Z,18.23
2019-02-19T19:52:25.649Z,16.90
2019-02-19T19:54:54.037Z,17.47
2019-02-19T19:57:22.461Z,18.73
2019-02-19T19:59:50.848Z,17.40
2019-02-19T20:02:20.069Z,18.00
2019-02-19T20:04:48.547Z,19.37
2019-02-19T20:07:16.977Z,18.87
2019-02-19T20:09:45.369Z,18.77
2019-02-19T20:12:13.772Z,16.63
2019-02-19T20:14:42.196Z,18.53
2019-02-19T20:17:10.599Z,19.30
2019-02-19T20:19:38.984Z,18.30
2019-02-19T20:22:07.418Z,19.00
2019-02-19T20:24:35.822Z,19.53
2019-02-19T20:27:04.240Z,19.20
2019-02-19T20:29:32.668Z,19.13
2019-02-19T20:32:01.056Z,20.13
2019-02-19T20:34:29.481Z,19.20
2019-02-19T20:36:57.867Z,18.57
2019-02-19T20:39:26.287Z,19.27
2019-02-19T20:41:54.749Z,20.47
2019-02-19T20:44:23.171Z,19.93
2019-02-19T20:46:51.562Z,19.83
2019-02-19T20:49:20.075Z,21.10
2019-02-19T20:51:48.548Z,20.60
2019-02-19T20:54:16.947Z,21.00
2019-02-19T20:56:45.343Z,20.30
2019-02-19T20:59:13.769Z,20.83
2019-02-19T21:01:42.264Z,20.40
2019-02-19T21:04:10.677Z,19.07
2019-02-19T21:06:39.070Z,19.47
2019-02-19T21:09:07.544Z,19.67
2019-02-19T21:11:35.943Z,19.70
2019-02-19T21:14:04.524Z,19.20
2019-02-19T21:16:32.922Z,20.10
2019-02-19T21:19:01.491Z,19.47
2019-02-19T21:21:29.900Z,20.20
2019-02-19T21:23:59.134Z,20.97
2019-02-19T21:26:28.461Z,20.30
2019-02-19T21:28:56.865Z,21.13
2019-02-19T21:31:25.274Z,23.20
2019-02-19T21:33:53.696Z,21.33
2019-02-19T21:36:22.108Z,23.93
2019-02-19T21:38:52.418Z,21.93
2019-02-19T21:41:20.640Z,23.77
2019-02-19T21:43:49.034Z,23.07
2019-02-19T21:46:17.430Z,22.83
2019-02-19T21:48:48.137Z,25.43
2019-02-19T21:51:16.406Z,23.70
2019-02-19T21:53:44.796Z,21.93
2019-02-19T21:56:13.192Z,24.77
2019-02-19T21:58:41.592Z,23.90
2019-02-19T22:01:10.015Z,23.53
2019-02-19T22:03:38.465Z,22.67
2019-02-19T22:06:06.863Z,24.47
2019-02-19T22:08:35.280Z,24.33
2019-02-19T22:11:03.707Z,23.50
2019-02-19T22:13:32.466Z,23.60
2019-02-19T22:16:00.859Z,22.67
2019-02-19T22:18:29.248Z,23.40
2019-02-19T22:21:02.249Z,23.57
2019-02-19T22:23:30.644Z,25.87
2019-02-19T22:25:59.075Z,24.20
2019-02-19T22:28:27.464Z,24.47
2019-02-19T22:30:55.868Z,25.10
2019-02-19T22:33:24.260Z,25.70
2019-02-19T22:35:52.668Z,23.87
2019-02-19T22:38:21.063Z,24.60
2019-02-19T22:40:55.188Z,25.40
2019-02-19T22:43:19.651Z,25.77
2019-02-19T22:45:48.036Z,26.27
2019-02-19T22:48:16.432Z,26.10
2019-02-19T22:50:44.816Z,25.77
2019-02-19T22:53:31.049Z,27.33
2019-02-19T22:56:01.225Z,25.40
2019-02-19T22:58:29.617Z,24.13
2019-02-19T23:01:02.413Z,26.53
2019-02-19T23:03:30.901Z,25.73
2019-02-19T23:05:59.291Z,25.87
2019-02-19T23:08:27.691Z,25.67
2019-02-19T23:10:56.120Z,25.23
2019-02-19T23:13:24.509Z,26.97
2019-02-19T23:15:52.926Z,26.63
2019-02-19T23:18:21.322Z,25.83
2019-02-19T23:20:49.745Z,26.20
2019-02-19T23:23:18.135Z,24.63
2019-02-19T23:25:46.551Z,27.33
2019-02-19T23:28:14.944Z,24.77
2019-02-19T23:30:43.391Z,23.97
2019-02-19T23:33:11.862Z,24.47
2019-02-19T23:35:47.681Z,24.83
2019-02-19T23:38:16.106Z,25.13
2019-02-19T23:40:44.493Z,25.93
2019-02-19T23:43:12.890Z,25.43
2019-02-19T23:45:41.279Z,25.93
2019-02-19T23:48:09.706Z,25.30
2019-02-19T23:50:38.099Z,23.43
2019-02-19T23:53:06.489Z,24.77
2019-02-19T23:55:34.936Z,23.73
2019-02-19T23:58:03.360Z,24.37
